Time;durP1;ratioP1;P1;durP2;ratioP2;P2;SDS_P1;SDS_P2;PMS_P1;PMS_P2;Temp;Humidity;BMP_temperature;BMP_pressure;BME280_temperature;BME280_humidity;BME280_pressure;Samples;Min_cycle;Max_cycle;Signal;HPM_P1;HPM_P2
2023/08/22 00:00:51;;;;;;;6.63;3.90;;;17.10;99.90;;;;;;5088927;28;20052;-80
2023/08/22 00:03:16;;;;;;;4.70;3.63;;;17.00;99.90;;;;;;5086864;28;20048;-80
2023/08/22 00:05:42;;;;;;;5.40;3.80;;;16.80;99.90;;;;;;5072776;28;20052;-80
2023/08/22 00:08:07;;;;;;;4.00;3.45;;;17.00;99.90;;;;;;5064381;28;20466;-80
2023/08/22 00:10:34;;;;;;;6.05;3.83;;;17.00;99.90;;;;;;5071473;28;20079;-80
2023/08/22 00:13:00;;;;;;;5.93;3.80;;;17.00;99.90;;;;;;5083752;28;20084;-80
2023/08/22 00:15:26;;;;;;;5.03;3.78;;;17.10;99.90;;;;;;5074429;28;20123;-80
2023/08/22 00:17:52;;;;;;;5.25;3.60;;;17.00;99.90;;;;;;5071860;28;20042;-80
2023/08/22 00:20:18;;;;;;;4.75;3.67;;;17.00;99.90;;;;;;5072121;28;20153;-80
2023/08/22 00:22:44;;;;;;;5.82;3.70;;;17.00;99.90;;;;;;5078626;28;20413;-80
2023/08/22 00:25:10;;;;;;;4.38;3.50;;;17.00;99.90;;;;;;5070704;28;20131;-80
2023/08/22 00:27:36;;;;;;;6.53;3.38;;;17.00;99.90;;;;;;5071699;28;21816;-80
2023/08/22 00:30:03;;;;;;;5.18;3.72;;;17.00;99.90;;;;;;5069876;28;20433;-80
2023/08/22 00:32:29;;;;;;;5.75;4.05;;;17.00;99.90;;;;;;5071099;28;20040;-80
2023/08/22 00:34:55;;;;;;;4.30;3.90;;;16.90;99.90;;;;;;5087196;28;20063;-80
2023/08/22 00:37:20;;;;;;;5.57;4.35;;;16.80;99.90;;;;;;5089546;28;20121;-80
2023/08/22 00:39:46;;;;;;;7.43;4.78;;;16.80;99.90;;;;;;5088861;28;20048;-80
2023/08/22 00:42:12;;;;;;;7.15;4.53;;;16.80;99.90;;;;;;5083152;28;20540;-80
2023/08/22 00:44:37;;;;;;;4.93;4.18;;;16.70;99.90;;;;;;5070520;28;20048;-80
2023/08/22 00:47:04;;;;;;;4.80;4.32;;;16.70;99.90;;;;;;5081490;28;20173;-80
2023/08/22 00:49:31;;;;;;;7.65;4.78;;;16.70;99.90;;;;;;5106775;28;20120;-80
2023/08/22 00:51:59;;;;;;;6.13;5.30;;;16.60;99.90;;;;;;5088485;28;20044;-80
2023/08/22 00:54:29;;;;;;;5.88;4.85;;;16.60;99.90;;;;;;5080692;28;20405;-80
2023/08/22 00:56:56;;;;;;;5.60;5.00;;;16.70;99.90;;;;;;5091377;28;20615;-80
2023/08/22 00:59:22;;;;;;;5.05;4.53;;;16.60;99.90;;;;;;5088563;28;20062;-79
2023/08/22 01:01:48;;;;;;;5.28;4.32;;;16.60;99.90;;;;;;5091065;28;20044;-80
2023/08/22 01:04:13;;;;;;;5.88;4.68;;;16.60;99.90;;;;;;5077939;28;20124;-80
2023/08/22 01:06:59;;;;;;;7.97;4.75;;;16.60;99.90;;;;;;5075811;28;20437;-80
2023/08/22 01:09:39;;;;;;;5.80;4.20;;;16.60;99.90;;;;;;5069666;28;20040;-80
2023/08/22 01:12:42;;;;;;;6.05;4.63;;;16.60;99.90;;;;;;5059977;28;20059;-80
2023/08/22 01:15:21;;;;;;;5.22;4.30;;;16.60;99.90;;;;;;5080350;28;20056;-80
2023/08/22 01:17:49;;;;;;;7.50;4.97;;;16.60;99.90;;;;;;5069126;28;20048;-80
2023/08/22 01:20:15;;;;;;;5.25;4.75;;;16.60;99.90;;;;;;5055373;28;20096;-80
2023/08/22 01:22:41;;;;;;;8.93;5.63;;;16.60;99.90;;;;;;5090004;28;20101;-80
2023/08/22 01:25:08;;;;;;;7.63;5.13;;;16.60;99.90;;;;;;5082591;28;20044;-80
2023/08/22 01:27:50;;;;;;;7.35;5.35;;;16.60;99.90;;;;;;5069258;28;20063;-80
2023/08/22 01:30:32;;;;;;;6.22;5.63;;;16.60;99.90;;;;;;5071991;28;20039;-80
2023/08/22 01:33:03;;;;;;;6.38;5.35;;;16.60;99.90;;;;;;5089326;28;20440;-80
2023/08/22 01:35:31;;;;;;;8.80;6.00;;;16.50;99.90;;;;;;5086755;28;20151;-80
2023/08/22 01:37:57;;;;;;;5.75;5.15;;;16.50;99.90;;;;;;5087817;28;20528;-80
2023/08/22 01:40:24;;;;;;;6.85;5.03;;;16.50;99.90;;;;;;5090019;28;20044;-79
2023/08/22 01:42:50;;;;;;;5.82;5.22;;;16.60;99.90;;;;;;5076198;28;20473;-80
2023/08/22 01:45:16;;;;;;;7.18;5.43;;;16.60;99.90;;;;;;5082480;28;20044;-80
2023/08/22 01:47:41;;;;;;;5.53;5.00;;;16.60;99.90;;;;;;5069677;28;20048;-79
2023/08/22 01:50:07;;;;;;;7.32;5.25;;;16.60;99.90;;;;;;5069294;28;20139;-80
2023/08/22 01:52:33;;;;;;;6.28;5.50;;;16.50;99.90;;;;;;5086952;28;20446;-80
2023/08/22 01:54:58;;;;;;;6.00;5.35;;;16.50;99.90;;;;;;5072736;28;20094;-80
2023/08/22 01:57:24;;;;;;;7.20;5.70;;;16.50;99.90;;;;;;5089996;28;20527;-79
2023/08/22 01:59:50;;;;;;;6.53;5.07;;;16.50;99.90;;;;;;5089113;28;20056;-80
2023/08/22 02:02:15;;;;;;;5.63;5.10;;;16.50;99.90;;;;;;5085297;28;20045;-80
2023/08/22 02:04:41;;;;;;;6.90;5.90;;;16.50;99.90;;;;;;5069250;28;20044;-80
2023/08/22 02:07:06;;;;;;;8.57;5.82;;;16.50;99.90;;;;;;5076411;28;20048;-79
2023/08/22 02:09:32;;;;;;;7.25;5.70;;;16.50;99.90;;;;;;5050967;28;20107;-79
2023/08/22 02:11:57;;;;;;;9.13;6.10;;;16.50;99.90;;;;;;5068540;28;20037;-80
2023/08/22 02:14:23;;;;;;;6.90;6.20;;;16.40;99.90;;;;;;5068797;28;20051;-80
2023/08/22 02:16:48;;;;;;;10.68;6.05;;;16.40;99.90;;;;;;5078485;28;20051;-79
2023/08/22 02:19:16;;;;;;;9.10;6.15;;;16.40;99.90;;;;;;5072063;28;20113;-79
2023/08/22 02:21:42;;;;;;;6.95;6.10;;;16.40;99.90;;;;;;5069074;28;20213;-80
2023/08/22 02:24:07;;;;;;;7.90;6.47;;;16.30;99.90;;;;;;5073805;28;20951;-79
2023/08/22 02:26:33;;;;;;;9.32;6.88;;;16.30;99.90;;;;;;5088189;28;20040;-80
2023/08/22 02:28:59;;;;;;;8.60;7.53;;;16.30;99.90;;;;;;5087311;28;20044;-80
2023/08/22 02:31:25;;;;;;;9.40;8.05;;;16.30;99.90;;;;;;5087933;28;20040;-80
2023/08/22 02:33:50;;;;;;;9.10;8.02;;;16.30;99.90;;;;;;5057917;28;20052;-80
2023/08/22 02:36:16;;;;;;;9.23;7.63;;;16.20;99.90;;;;;;5069166;28;20052;-80
2023/08/22 02:38:41;;;;;;;8.05;7.07;;;16.20;99.90;;;;;;5066853;28;20052;-80
2023/08/22 02:41:07;;;;;;;8.50;7.80;;;16.30;99.90;;;;;;5077751;28;20044;-79
2023/08/22 02:43:33;;;;;;;8.57;7.47;;;16.20;99.90;;;;;;5086960;28;20080;-80
2023/08/22 02:45:58;;;;;;;10.75;8.05;;;16.20;99.90;;;;;;5088151;28;20355;-80
2023/08/22 02:48:24;;;;;;;8.90;7.78;;;16.10;99.90;;;;;;5088954;28;20048;-80
2023/08/22 02:50:50;;;;;;;10.32;8.15;;;16.10;99.90;;;;;;5088971;28;20051;-79
2023/08/22 02:53:15;;;;;;;9.25;8.35;;;16.10;99.90;;;;;;5083747;28;20059;-79
2023/08/22 02:55:41;;;;;;;9.48;7.90;;;16.10;99.90;;;;;;5067923;28;20045;-79
2023/08/22 02:58:07;;;;;;;8.40;7.30;;;16.10;99.90;;;;;;5068269;28;20124;-79
2023/08/22 03:00:34;;;;;;;9.30;7.97;;;16.00;99.90;;;;;;5086954;28;20071;-79
2023/08/22 03:03:01;;;;;;;10.95;8.57;;;16.60;99.90;;;;;;5087490;28;20175;-79
2023/08/22 03:05:26;;;;;;;11.75;8.35;;;16.00;99.90;;;;;;5068253;28;20056;-79
2023/08/22 03:07:52;;;;;;;8.80;7.88;;;16.00;99.90;;;;;;5081743;28;20055;-79
2023/08/22 03:10:17;;;;;;;10.40;9.30;;;16.00;99.90;;;;;;5070482;28;20411;-79
2023/08/22 03:12:43;;;;;;;9.27;8.48;;;16.00;99.90;;;;;;5083591;28;20055;-79
2023/08/22 03:15:09;;;;;;;11.73;9.80;;;16.00;99.90;;;;;;5070442;28;20498;-79
2023/08/22 03:17:34;;;;;;;11.98;10.00;;;16.00;99.90;;;;;;5067795;28;20037;-79
2023/08/22 03:20:00;;;;;;;10.95;9.13;;;16.00;99.90;;;;;;5067471;28;20131;-79
2023/08/22 03:22:25;;;;;;;14.02;10.05;;;16.10;99.90;;;;;;5068906;28;20044;-79
2023/08/22 03:24:51;;;;;;;9.48;8.15;;;16.10;99.90;;;;;;5068738;28;20048;-79
2023/08/22 03:27:18;;;;;;;11.25;8.30;;;16.10;99.90;;;;;;5068458;28;20071;-79
2023/08/22 03:29:43;;;;;;;10.55;8.77;;;16.10;99.90;;;;;;5068577;28;20051;-79
2023/08/22 03:32:09;;;;;;;10.50;9.40;;;16.10;99.90;;;;;;5087615;28;20425;-79
2023/08/22 03:34:34;;;;;;;11.07;9.55;;;16.10;99.90;;;;;;5083369;28;20059;-79
2023/08/22 03:37:00;;;;;;;11.75;9.57;;;16.10;99.90;;;;;;5102609;28;20066;-79
2023/08/22 03:39:26;;;;;;;10.75;9.02;;;16.10;99.90;;;;;;5086191;28;20043;-79
2023/08/22 03:41:51;;;;;;;10.95;9.85;;;16.10;99.90;;;;;;5072124;28;20044;-79
2023/08/22 03:44:17;;;;;;;11.18;9.23;;;16.10;99.90;;;;;;5086590;28;20062;-79
2023/08/22 03:46:42;;;;;;;9.13;8.32;;;16.00;99.90;;;;;;5078243;28;20036;-79
2023/08/22 03:49:08;;;;;;;9.95;8.85;;;16.00;99.90;;;;;;5067737;28;20103;-79
2023/08/22 03:51:33;;;;;;;9.93;8.90;;;15.90;99.90;;;;;;5066797;28;20123;-79
2023/08/22 03:53:59;;;;;;;11.07;8.98;;;15.90;99.90;;;;;;5066603;28;20044;-78
2023/08/22 03:56:25;;;;;;;10.23;9.05;;;15.80;99.90;;;;;;5072764;28;20048;-78
2023/08/22 03:58:50;;;;;;;11.35;10.02;;;15.80;99.90;;;;;;5070195;28;20040;-79
2023/08/22 04:01:16;;;;;;;9.05;8.23;;;15.80;99.90;;;;;;5067360;28;20814;-78
2023/08/22 04:03:41;;;;;;;9.75;8.75;;;15.70;99.90;;;;;;5078869;28;20071;-78
2023/08/22 04:06:07;;;;;;;8.65;7.85;;;15.80;99.90;;;;;;5080024;28;20040;-78
2023/08/22 04:08:33;;;;;;;9.93;9.02;;;15.60;99.90;;;;;;5074198;28;20048;-78
2023/08/22 04:10:58;;;;;;;8.45;7.65;;;15.60;99.90;;;;;;5065716;28;20048;-78
2023/08/22 04:13:24;;;;;;;11.70;8.60;;;15.50;99.90;;;;;;5065425;28;20068;-78
2023/08/22 04:15:50;;;;;;;8.43;7.68;;;15.50;99.90;;;;;;5073418;28;20051;-78
2023/08/22 04:18:15;;;;;;;9.13;8.25;;;15.50;99.90;;;;;;5075749;28;20358;-78
2023/08/22 04:20:43;;;;;;;8.40;7.60;;;15.40;99.90;;;;;;5087473;28;20036;-78
2023/08/22 04:23:09;;;;;;;10.90;7.80;;;15.40;99.90;;;;;;5087180;28;20441;-78
2023/08/22 04:25:35;;;;;;;8.85;7.95;;;15.30;99.90;;;;;;5066737;28;20462;-78
2023/08/22 04:28:01;;;;;;;10.30;7.90;;;15.30;99.90;;;;;;5073037;28;20043;-78
2023/08/22 04:30:26;;;;;;;8.07;7.28;;;15.30;99.90;;;;;;5066868;28;20123;-78
2023/08/22 04:32:52;;;;;;;8.80;7.55;;;15.10;99.90;;;;;;5066252;28;20114;-78
2023/08/22 04:35:17;;;;;;;10.07;7.72;;;15.20;99.90;;;;;;5065384;28;20055;-78
2023/08/22 04:37:43;;;;;;;9.98;8.98;;;15.20;99.90;;;;;;5066450;28;20055;-78
2023/08/22 04:40:09;;;;;;;8.93;7.95;;;15.20;99.90;;;;;;5066515;28;20049;-78
2023/08/22 04:42:34;;;;;;;8.35;7.55;;;15.20;99.90;;;;;;5067000;28;20040;-78
2023/08/22 04:45:00;;;;;;;7.97;7.13;;;15.10;99.90;;;;;;5065923;28;20074;-78
2023/08/22 04:47:26;;;;;;;9.35;8.25;;;15.10;99.90;;;;;;5069205;28;20190;-78
2023/08/22 04:49:51;;;;;;;9.30;8.40;;;15.10;99.90;;;;;;5070710;28;20125;-78
2023/08/22 04:52:17;;;;;;;8.65;7.95;;;15.00;99.90;;;;;;5069557;28;20493;-78
2023/08/22 04:54:42;;;;;;;8.73;7.82;;;15.00;99.90;;;;;;5069809;28;20131;-78
2023/08/22 04:57:08;;;;;;;9.63;8.75;;;15.00;99.90;;;;;;5078228;28;20036;-78
2023/08/22 04:59:34;;;;;;;9.38;8.48;;;15.00;99.90;;;;;;5070830;28;20047;-78
2023/08/22 05:01:59;;;;;;;8.70;7.90;;;15.00;99.90;;;;;;5069933;28;20056;-78
2023/08/22 05:04:25;;;;;;;7.43;6.72;;;15.00;99.90;;;;;;5071864;28;20867;-78
2023/08/22 05:06:50;;;;;;;10.38;8.32;;;15.10;99.90;;;;;;5052479;28;20190;-78
2023/08/22 05:09:16;;;;;;;7.90;7.20;;;15.10;99.90;;;;;;5075862;28;20048;-78
2023/08/22 05:11:42;;;;;;;10.40;8.35;;;15.10;99.90;;;;;;5077884;28;20491;-78
2023/08/22 05:14:09;;;;;;;9.70;8.70;;;15.10;99.90;;;;;;5083940;28;20562;-78
2023/08/22 05:16:35;;;;;;;9.93;8.10;;;15.20;99.90;;;;;;5081620;28;20036;-78
2023/08/22 05:19:00;;;;;;;13.20;10.40;;;15.20;99.90;;;;;;5075235;28;20059;-80
2023/08/22 05:21:26;;;;;;;10.73;9.73;;;15.30;99.90;;;;;;5071975;28;20048;-79
2023/08/22 05:23:52;;;;;;;14.25;9.13;;;15.30;99.90;;;;;;5078008;28;20044;-80
2023/08/22 05:26:17;;;;;;;12.23;9.05;;;15.40;99.90;;;;;;5068792;28;20136;-78
2023/08/22 05:28:43;;;;;;;10.27;9.23;;;15.50;99.90;;;;;;5072860;28;20048;-78
2023/08/22 05:31:09;;;;;;;11.00;9.90;;;15.50;99.90;;;;;;5072304;28;20040;-77
2023/08/22 05:33:34;;;;;;;11.70;9.90;;;15.60;99.90;;;;;;5062997;28;20363;-79
2023/08/22 05:36:00;;;;;;;12.68;11.38;;;15.70;99.90;;;;;;5084024;28;20067;-78
2023/08/22 05:38:26;;;;;;;11.93;10.38;;;15.90;99.90;;;;;;5075136;28;20044;-79
2023/08/22 05:40:52;;;;;;;13.32;10.60;;;15.90;99.90;;;;;;5084236;28;20044;-79
2023/08/22 05:43:17;;;;;;;10.95;9.85;;;16.10;99.90;;;;;;5070478;28;20067;-79
2023/08/22 05:45:43;;;;;;;11.75;9.88;;;16.10;99.90;;;;;;5084671;28;20119;-79
2023/08/22 05:48:09;;;;;;;10.88;9.35;;;16.20;99.90;;;;;;5073092;28;20044;-79
2023/08/22 05:50:34;;;;;;;11.15;10.05;;;16.30;99.90;;;;;;5078445;28;20095;-79
2023/08/22 05:53:00;;;;;;;12.60;11.30;;;16.50;99.90;;;;;;5087614;28;20036;-79
2023/08/22 05:55:25;;;;;;;13.75;10.00;;;16.80;99.90;;;;;;5084266;28;20050;-79
2023/08/22 05:57:51;;;;;;;12.15;10.35;;;17.80;99.90;;;;;;5073385;28;20182;-79
2023/08/22 06:00:16;;;;;;;10.77;9.70;;;19.00;99.90;;;;;;5071276;28;20135;-79
2023/08/22 06:02:42;;;;;;;11.07;9.80;;;19.90;99.90;;;;;;5078204;28;20512;-79
2023/08/22 06:05:08;;;;;;;10.70;9.63;;;20.80;99.90;;;;;;5074622;28;20047;-80
2023/08/22 06:07:34;;;;;;;10.70;9.60;;;20.90;99.90;;;;;;5076193;28;20576;-79
2023/08/22 06:10:00;;;;;;;11.10;9.45;;;20.60;99.90;;;;;;5082790;28;20405;-79
2023/08/22 06:12:26;;;;;;;11.40;9.38;;;20.30;99.90;;;;;;5083055;28;20456;-79
2023/08/22 06:14:52;;;;;;;9.32;8.45;;;20.00;99.90;;;;;;5068469;28;20059;-78
2023/08/22 06:17:18;;;;;;;9.82;8.82;;;19.80;99.90;;;;;;5052700;28;20047;-79
2023/08/22 06:19:47;;;;;;;11.25;8.52;;;19.70;99.90;;;;;;5078393;28;20055;-80
2023/08/22 06:22:13;;;;;;;11.85;9.25;;;19.60;99.90;;;;;;5067371;28;20789;-80
2023/08/22 06:24:38;;;;;;;10.57;8.80;;;19.50;99.90;;;;;;5068999;28;20036;-80
2023/08/22 06:27:04;;;;;;;12.75;8.57;;;19.40;99.90;;;;;;5082001;28;20040;-80
2023/08/22 06:29:31;;;;;;;13.65;8.68;;;19.20;99.90;;;;;;5082385;28;20517;-79
2023/08/22 06:32:00;;;;;;;10.75;8.75;;;19.10;99.90;;;;;;5068529;28;20044;-80
2023/08/22 06:34:26;;;;;;;9.23;8.32;;;19.00;99.90;;;;;;5068892;28;20056;-80
2023/08/22 06:36:51;;;;;;;12.63;9.38;;;19.00;99.90;;;;;;5070028;28;20185;-80
2023/08/22 06:39:17;;;;;;;11.20;9.15;;;19.10;99.90;;;;;;5086341;28;20548;-84
2023/08/22 06:41:43;;;;;;;10.48;8.90;;;19.00;99.90;;;;;;5078308;28;20490;-80
2023/08/22 06:44:09;;;;;;;13.63;8.95;;;18.90;99.90;;;;;;5087730;28;20503;-80
2023/08/22 06:46:37;;;;;;;9.77;8.38;;;18.90;99.90;;;;;;5088541;28;20040;-80
2023/08/22 06:49:03;;;;;;;12.05;9.20;;;18.90;99.90;;;;;;5089079;28;20093;-81
2023/08/22 06:51:29;;;;;;;13.40;8.68;;;19.20;99.90;;;;;;5072782;28;20040;-80
2023/08/22 06:53:55;;;;;;;10.57;8.38;;;18.90;99.90;;;;;;5070369;28;20572;-80
2023/08/22 06:56:20;;;;;;;16.23;9.20;;;18.90;99.90;;;;;;5088613;28;20055;-80
2023/08/22 06:58:46;;;;;;;10.55;8.18;;;19.00;99.90;;;;;;5088753;28;20043;-80
2023/08/22 07:01:13;;;;;;;12.73;7.78;;;19.10;99.90;;;;;;5089145;28;20042;-80
2023/08/22 07:03:38;;;;;;;10.15;8.57;;;19.10;99.90;;;;;;5069848;28;20056;-80
2023/08/22 07:06:04;;;;;;;9.38;7.93;;;19.20;99.90;;;;;;5068264;28;20044;-82
2023/08/22 07:08:30;;;;;;;12.88;9.25;;;19.40;99.90;;;;;;5067855;28;20044;-81
2023/08/22 07:11:04;;;;;;;11.20;8.73;;;19.60;99.90;;;;;;5067342;28;20052;-80
2023/08/22 07:13:32;;;;;;;14.23;8.35;;;19.90;99.90;;;;;;5067841;28;20041;-81
2023/08/22 07:15:57;;;;;;;13.05;8.27;;;20.10;99.90;;;;;;5066903;28;20044;-80
2023/08/22 07:18:23;;;;;;;11.65;7.32;;;20.50;99.90;;;;;;5070267;28;20059;-81
2023/08/22 07:20:51;;;;;;;10.80;6.95;;;20.80;99.90;;;;;;5087020;28;20044;-78
2023/08/22 07:23:18;;;;;;;12.50;6.63;;;20.90;99.90;;;;;;5087854;28;20067;-78
2023/08/22 07:25:48;;;;;;;10.85;7.18;;;21.10;99.90;;;;;;5086962;28;20055;-81
2023/08/22 07:28:14;;;;;;;9.23;6.38;;;21.10;99.90;;;;;;5087798;28;20044;-81
2023/08/22 07:30:40;;;;;;;8.75;5.95;;;21.10;99.90;;;;;;5088659;28;20398;-80
2023/08/22 07:33:06;;;;;;;10.60;5.97;;;21.20;99.90;;;;;;5078710;28;20051;-81
2023/08/22 07:35:34;;;;;;;9.43;5.30;;;21.30;99.90;;;;;;5050145;28;20056;-81
2023/08/22 07:37:59;;;;;;;10.20;4.13;;;21.40;99.90;;;;;;5068611;28;20134;-81
2023/08/22 07:40:25;;;;;;;9.05;5.28;;;21.50;99.90;;;;;;5066081;28;20072;-78
2023/08/22 07:42:51;;;;;;;6.30;4.97;;;21.70;99.90;;;;;;5074857;28;20101;-78
2023/08/22 07:45:16;;;;;;;7.85;4.90;;;21.80;99.90;;;;;;5066911;28;20048;-77
2023/08/22 07:47:42;;;;;;;6.45;5.03;;;21.90;99.90;;;;;;5065866;28;20084;-78
2023/08/22 07:50:08;;;;;;;9.13;5.25;;;22.10;99.90;;;;;;5068343;28;20049;-79
2023/08/22 07:52:34;;;;;;;6.57;4.80;;;22.10;99.90;;;;;;5066360;28;20045;-79
2023/08/22 07:54:59;;;;;;;7.82;4.75;;;22.10;99.90;;;;;;5067360;28;20085;-80
2023/08/22 07:57:25;;;;;;;8.57;4.78;;;22.10;99.90;;;;;;5067130;28;20461;-80
2023/08/22 07:59:50;;;;;;;7.75;4.30;;;22.10;99.90;;;;;;5075516;28;20044;-80
2023/08/22 08:02:16;;;;;;;7.75;4.60;;;22.10;99.90;;;;;;5088549;28;20130;-80
2023/08/22 08:04:41;;;;;;;7.38;4.30;;;22.10;99.90;;;;;;5086316;28;20046;-80
2023/08/22 08:07:07;;;;;;;8.95;3.67;;;22.10;99.90;;;;;;5073256;28;20045;-81
2023/08/22 08:09:34;;;;;;;9.13;4.75;;;22.10;99.90;;;;;;5066124;28;20080;-81
2023/08/22 08:11:59;;;;;;;5.45;4.07;;;22.30;99.90;;;;;;5067107;28;20060;-81
2023/08/22 08:14:25;;;;;;;5.40;3.83;;;22.40;99.90;;;;;;5066451;28;20049;-81
2023/08/22 08:16:50;;;;;;;5.38;3.67;;;22.40;99.90;;;;;;5067444;28;20052;-81
2023/08/22 08:19:16;;;;;;;6.72;3.15;;;22.40;99.90;;;;;;5066464;28;20040;-81
2023/08/22 08:21:42;;;;;;;4.15;3.25;;;22.40;99.90;;;;;;5073256;28;20131;-81
2023/08/22 08:24:08;;;;;;;6.50;3.75;;;22.40;99.90;;;;;;5080989;28;20048;-80
2023/08/22 08:26:34;;;;;;;8.68;3.80;;;22.30;99.90;;;;;;5075378;28;20051;-81
2023/08/22 08:28:59;;;;;;;4.18;3.28;;;22.30;99.90;;;;;;5090789;28;20044;-81
2023/08/22 08:31:25;;;;;;;6.50;3.13;;;22.30;99.90;;;;;;5090956;28;20094;-81
2023/08/22 08:33:52;;;;;;;3.85;2.75;;;22.40;99.90;;;;;;5091665;28;20060;-81
2023/08/22 08:36:17;;;;;;;4.45;3.10;;;22.40;99.90;;;;;;5091333;28;20106;-81
2023/08/22 08:38:43;;;;;;;5.50;3.13;;;22.50;99.90;;;;;;5073070;28;20040;-81
2023/08/22 08:41:09;;;;;;;3.88;2.42;;;22.40;99.90;;;;;;5086978;28;20141;-79
2023/08/22 08:43:35;;;;;;;8.95;2.42;;;22.60;99.90;;;;;;5070792;28;20044;-79
2023/08/22 08:46:02;;;;;;;4.70;2.17;;;22.60;99.90;;;;;;5071044;28;20071;-78
2023/08/22 08:48:29;;;;;;;3.58;2.10;;;22.60;99.90;;;;;;5069636;28;20422;-78
2023/08/22 08:50:58;;;;;;;3.33;1.48;;;22.70;99.90;;;;;;5070726;28;20055;-78
2023/08/22 08:53:24;;;;;;;2.78;1.88;;;22.70;99.90;;;;;;5070595;28;20055;-78
2023/08/22 08:55:51;;;;;;;2.97;1.50;;;22.60;99.90;;;;;;5070566;28;20079;-78
2023/08/22 08:58:17;;;;;;;2.92;1.38;;;22.50;99.90;;;;;;5070902;28;20068;-79
2023/08/22 09:00:44;;;;;;;1.70;1.17;;;22.40;99.90;;;;;;5067932;28;20463;-79
2023/08/22 09:03:10;;;;;;;2.42;1.10;;;22.40;99.90;;;;;;5067733;28;20380;-78
2023/08/22 09:05:36;;;;;;;4.05;1.48;;;22.30;99.90;;;;;;5069353;28;20036;-81
2023/08/22 09:08:15;;;;;;;3.70;1.20;;;22.30;99.90;;;;;;5069590;28;20056;-78
2023/08/22 09:10:41;;;;;;;2.10;1.55;;;22.30;99.90;;;;;;5070245;28;20048;-80
2023/08/22 09:13:07;;;;;;;5.57;1.40;;;22.30;99.90;;;;;;5073375;28;20044;-79
2023/08/22 09:15:33;;;;;;;3.20;1.92;;;22.30;99.90;;;;;;5081086;28;20066;-82
2023/08/22 09:17:58;;;;;;;2.15;1.10;;;22.30;99.90;;;;;;5087761;28;20119;-80
2023/08/22 09:20:24;;;;;;;2.67;1.38;;;22.30;99.90;;;;;;5086718;28;20062;-80
2023/08/22 09:22:50;;;;;;;2.03;1.58;;;22.20;99.90;;;;;;5075061;28;20048;-80
2023/08/22 09:25:16;;;;;;;2.45;1.48;;;22.20;99.90;;;;;;5071944;28;20037;-81
2023/08/22 09:27:48;;;;;;;2.60;1.92;;;22.20;99.90;;;;;;5083053;28;20748;-80
2023/08/22 09:30:15;;;;;;;3.42;1.83;;;22.30;99.90;;;;;;5069666;28;20543;-82
2023/08/22 09:32:42;;;;;;;6.22;1.90;;;22.40;99.90;;;;;;5052986;28;20052;-81
2023/08/22 09:35:08;;;;;;;3.63;1.98;;;22.40;99.90;;;;;;5081059;28;20074;-82
2023/08/22 09:37:35;;;;;;;4.03;1.63;;;22.60;99.90;;;;;;5070437;28;20058;-81
2023/08/22 09:40:10;;;;;;;3.95;1.80;;;22.80;99.90;;;;;;5084946;28;20087;-81
2023/08/22 09:42:41;;;;;;;3.17;1.83;;;23.00;99.90;;;;;;5049957;28;20040;-81
2023/08/22 09:45:07;;;;;;;4.07;1.60;;;23.30;99.90;;;;;;5067288;28;20055;-82
2023/08/22 09:47:47;;;;;;;4.72;1.90;;;23.50;99.90;;;;;;5067701;28;20048;-82
2023/08/22 09:50:16;;;;;;;3.90;1.80;;;23.60;99.90;;;;;;5068588;28;20051;-82
2023/08/22 09:52:41;;;;;;;2.95;1.60;;;23.70;99.90;;;;;;5068217;28;20091;-82
2023/08/22 09:55:10;;;;;;;4.63;2.10;;;23.80;99.90;;;;;;5067707;28;20049;-82
2023/08/22 09:57:37;;;;;;;4.32;2.38;;;24.00;99.90;;;;;;5068168;28;20048;-83
2023/08/22 10:00:05;;;;;;;3.10;2.20;;;24.10;99.90;;;;;;5069491;28;20045;-82
2023/08/22 10:02:32;;;;;;;3.40;2.33;;;24.20;98.40;;;;;;5051672;28;20037;-82
2023/08/22 10:04:59;;;;;;;4.57;2.15;;;24.30;98.80;;;;;;5069709;28;20469;-81
2023/08/22 10:07:24;;;;;;;4.75;2.05;;;24.50;98.90;;;;;;5069473;28;20116;-81
2023/08/22 10:09:51;;;;;;;8.60;3.13;;;24.50;98.20;;;;;;5079202;28;20044;-82
2023/08/22 10:12:17;;;;;;;3.20;1.88;;;24.60;98.10;;;;;;5070520;28;20040;-81
2023/08/22 10:14:50;;;;;;;4.57;2.10;;;24.70;98.10;;;;;;5085239;28;20044;-81
2023/08/22 10:17:16;;;;;;;4.05;2.03;;;24.80;97.50;;;;;;5088442;28;20125;-81
2023/08/22 10:19:43;;;;;;;4.18;2.08;;;24.80;97.80;;;;;;5087935;28;20080;-81
2023/08/22 10:22:11;;;;;;;8.52;2.33;;;24.70;97.70;;;;;;5089446;28;20444;-81
2023/08/22 10:24:36;;;;;;;3.20;2.25;;;24.60;97.60;;;;;;5074041;28;20119;-81
2023/08/22 10:27:09;;;;;;;4.35;2.42;;;24.60;97.60;;;;;;5067871;28;20578;-82
2023/08/22 10:29:36;;;;;;;4.00;2.08;;;24.60;96.90;;;;;;5076145;28;20049;-81
2023/08/22 10:32:02;;;;;;;2.65;2.00;;;24.80;97.30;;;;;;5073903;28;20069;-81
2023/08/22 10:34:34;;;;;;;2.38;1.60;;;25.00;96.60;;;;;;5088796;28;20088;-81
2023/08/22 10:37:00;;;;;;;;;;;25.00;95.30;;;;;;5089812;28;20052;-80
2023/08/22 10:39:39;;;;;;;2.58;1.88;;;24.90;93.00;;;;;;5083592;28;20402;-81
2023/08/22 10:42:06;;;;;;;4.03;1.80;;;24.90;94.70;;;;;;5088817;28;20084;-81
2023/08/22 10:44:31;;;;;;;4.97;1.80;;;24.60;95.30;;;;;;5086647;28;20525;-82
2023/08/22 10:47:03;;;;;;;3.03;1.92;;;24.50;95.60;;;;;;5073466;28;20048;-81
2023/08/22 10:49:30;;;;;;;3.83;1.88;;;24.40;95.60;;;;;;5068597;28;20103;-81
2023/08/22 10:52:06;;;;;;;1.73;1.20;;;24.30;96.00;;;;;;5068497;28;20190;-81
2023/08/22 10:54:51;;;;;;;3.63;1.20;;;24.30;95.40;;;;;;5073648;28;20055;-80
2023/08/22 10:57:18;;;;;;;2.60;1.38;;;24.30;95.20;;;;;;5088361;28;20040;-81
2023/08/22 10:59:59;;;;;;;4.20;1.90;;;24.30;95.00;;;;;;5073739;28;20048;-80
2023/08/22 11:02:30;;;;;;;4.80;2.10;;;24.30;95.40;;;;;;5086594;28;20048;-80
2023/08/22 11:05:00;;;;;;;3.72;1.88;;;24.30;96.50;;;;;;5067885;28;20586;-81
2023/08/22 11:07:29;;;;;;;2.90;1.95;;;24.60;97.00;;;;;;5068337;28;20151;-80
2023/08/22 11:09:55;;;;;;;3.67;2.00;;;24.60;96.20;;;;;;5067211;28;20052;-81
2023/08/22 11:12:22;;;;;;;4.07;1.60;;;24.60;95.90;;;;;;5068634;28;20443;-80
2023/08/22 11:14:53;;;;;;;2.28;1.30;;;24.60;95.40;;;;;;5066542;28;20049;-81
2023/08/22 11:17:20;;;;;;;2.17;1.40;;;24.70;95.50;;;;;;5069612;28;20041;-82
2023/08/22 11:19:49;;;;;;;4.25;1.27;;;24.70;95.80;;;;;;5069861;28;20146;-81
2023/08/22 11:22:15;;;;;;;2.50;1.00;;;24.90;95.60;;;;;;5074152;28;20040;-82
2023/08/22 11:24:44;;;;;;;1.75;0.90;;;25.00;94.60;;;;;;5072233;28;20441;-83
2023/08/22 11:27:12;;;;;;;3.40;1.10;;;24.90;93.50;;;;;;5083934;28;20040;-82
2023/08/22 11:29:49;;;;;;;3.67;1.10;;;24.90;92.90;;;;;;5067647;28;20052;-81
2023/08/22 11:32:23;;;;;;;1.88;0.93;;;24.90;91.90;;;;;;5067939;28;20119;-83
2023/08/22 11:34:50;;;;;;;1.52;0.80;;;24.90;91.30;;;;;;5067490;28;20052;-80
2023/08/22 11:37:19;;;;;;;1.35;0.70;;;25.10;91.70;;;;;;5067904;28;20051;-81
2023/08/22 11:39:52;;;;;;;2.58;0.70;;;25.10;91.20;;;;;;5067084;28;20457;-81
2023/08/22 11:42:20;;;;;;;2.13;0.70;;;25.20;90.70;;;;;;5078232;28;20056;-80
2023/08/22 11:45:04;;;;;;;3.78;0.90;;;25.20;90.90;;;;;;5087941;28;20075;-80
2023/08/22 11:47:44;;;;;;;1.40;0.73;;;25.40;89.00;;;;;;5088303;28;20108;-81
2023/08/22 11:50:14;;;;;;;2.50;0.98;;;25.40;88.60;;;;;;5087054;28;20096;-80
2023/08/22 11:52:45;;;;;;;2.05;0.70;;;25.50;88.50;;;;;;5079979;28;20052;-81
2023/08/22 11:55:14;;;;;;;2.45;0.90;;;25.50;87.20;;;;;;5087164;28;20048;-83
2023/08/22 11:57:42;;;;;;;2.22;0.68;;;25.50;87.30;;;;;;5087165;28;20051;-82
2023/08/22 12:00:12;;;;;;;2.10;0.57;;;25.50;86.60;;;;;;5085808;28;20139;-83
2023/08/22 12:02:42;;;;;;;3.03;0.73;;;25.50;84.80;;;;;;5088014;28;20063;-81
2023/08/22 12:05:08;;;;;;;1.42;1.02;;;25.60;86.70;;;;;;5074420;28;20040;-81
2023/08/22 12:07:43;;;;;;;1.75;0.70;;;25.70;87.60;;;;;;5072457;28;20053;-81
2023/08/22 12:10:12;;;;;;;1.25;0.70;;;25.80;85.50;;;;;;5066950;28;20491;-80
2023/08/22 12:12:38;;;;;;;1.65;0.80;;;25.80;86.80;;;;;;5067432;28;20044;-80
2023/08/22 12:15:04;;;;;;;2.28;0.98;;;25.80;85.20;;;;;;5067200;28;20043;-79
2023/08/22 12:17:31;;;;;;;1.77;1.10;;;25.80;85.70;;;;;;5059591;28;20070;-81
2023/08/22 12:19:56;;;;;;;3.00;0.73;;;25.70;85.90;;;;;;5087667;28;20085;-81
2023/08/22 12:22:22;;;;;;;1.88;1.15;;;25.80;85.90;;;;;;5087462;28;20048;-81
2023/08/22 12:24:49;;;;;;;1.60;0.95;;;25.80;84.90;;;;;;5086990;28;20059;-81
2023/08/22 12:27:14;;;;;;;3.92;1.00;;;25.80;85.00;;;;;;5087776;28;20040;-80
2023/08/22 12:29:41;;;;;;;2.80;0.60;;;25.80;84.60;;;;;;5087669;28;20036;-79
2023/08/22 12:32:07;;;;;;;3.40;0.82;;;25.80;82.90;;;;;;5084120;28;20044;-81
2023/08/22 12:34:33;;;;;;;2.17;1.20;;;25.80;83.10;;;;;;5082033;28;20040;-80
2023/08/22 12:36:58;;;;;;;2.22;1.00;;;25.80;81.70;;;;;;5066769;28;20052;-81
2023/08/22 12:39:24;;;;;;;3.20;1.40;;;25.80;82.90;;;;;;5066477;28;20094;-79
2023/08/22 12:41:50;;;;;;;2.08;1.15;;;25.80;82.70;;;;;;5070849;28;20040;-80